createdAt,value
2017-08-22T00:00:31.519Z,15
2017-08-22T00:01:30.713Z,15
2017-08-22T00:02:30.727Z,15
2017-08-22T00:03:29.303Z,15
2017-08-22T00:04:28.761Z,15
2017-08-22T00:05:27.836Z,15
2017-08-22T00:06:27.288Z,15
2017-08-22T00:06:57.674Z,15
2017-08-22T00:07:28.057Z,14.9
2017-08-22T00:07:58.451Z,14.9
2017-08-22T00:08:28.958Z,14.8
2017-08-22T00:09:25.142Z,14.8
2017-08-22T00:10:24.336Z,14.8
2017-08-22T00:12:22.402Z,14.8
2017-08-22T00:13:21.979Z,14.8
2017-08-22T00:14:21.177Z,14.8
2017-08-22T00:15:20.372Z,14.8
2017-08-22T00:16:19.330Z,14.8
2017-08-22T00:17:18.898Z,14.8
2017-08-22T00:18:18.092Z,14.7
2017-08-22T00:19:17.290Z,14.7
2017-08-22T00:20:16.870Z,14.8
2017-08-22T00:21:15.830Z,14.8
2017-08-22T00:22:15.017Z,14.7
2017-08-22T00:23:14.201Z,14.6
2017-08-22T00:24:13.160Z,14.6
2017-08-22T00:25:12.856Z,14.6
2017-08-22T00:26:12.054Z,14.6
2017-08-22T00:27:11.239Z,14.6
2017-08-22T00:28:10.435Z,14.6
2017-08-22T00:29:09.420Z,14.6
2017-08-22T00:30:09.118Z,14.6
2017-08-22T00:31:08.317Z,14.7
2017-08-22T00:32:07.398Z,14.7
2017-08-22T00:33:06.586Z,14.7
2017-08-22T00:34:06.283Z,14.7
2017-08-22T00:35:05.379Z,14.7
2017-08-22T00:36:04.469Z,14.7
2017-08-22T00:37:03.534Z,14.7
2017-08-22T00:38:03.116Z,14.6
2017-08-22T00:39:02.196Z,14.5
2017-08-22T00:40:01.150Z,14.5
2017-08-22T00:41:00.722Z,14.5
2017-08-22T00:42:00.192Z,14.6
2017-08-22T00:42:59.272Z,14.6
2017-08-22T00:43:58.129Z,14.5
2017-08-22T00:44:57.591Z,14.6
2017-08-22T00:45:56.937Z,14.5
2017-08-22T00:46:55.896Z,14.5
2017-08-22T00:47:55.602Z,14.5
2017-08-22T00:48:54.801Z,14.5
2017-08-22T00:49:54.000Z,14.5
2017-08-22T00:51:52.585Z,14.3
2017-08-22T00:52:51.781Z,14.3
2017-08-22T00:53:50.864Z,14.3
2017-08-22T00:54:49.934Z,14.3
2017-08-22T00:55:49.508Z,14.1
2017-08-22T00:56:48.689Z,14.3
2017-08-22T00:57:47.896Z,14.3
2017-08-22T00:58:46.961Z,14.3
2017-08-22T00:59:46.295Z,14.3
2017-08-22T01:00:45.383Z,14.3
2017-08-22T01:01:44.577Z,14.2
2017-08-22T01:02:14.965Z,14.2
2017-08-22T01:05:41.496Z,14.2
2017-08-22T01:06:41.193Z,14.2
2017-08-22T01:07:40.167Z,14.2
2017-08-22T01:08:39.247Z,14.2
2017-08-22T01:09:38.332Z,14.1
2017-08-22T01:10:38.025Z,14.1
2017-08-22T01:11:37.094Z,14.1
2017-08-22T01:12:36.053Z,14.1
2017-08-22T01:13:35.512Z,14.1
2017-08-22T01:14:34.472Z,14.1
2017-08-22T01:15:34.160Z,14
2017-08-22T01:16:33.364Z,14
2017-08-22T01:17:32.316Z,14
2017-08-22T01:18:31.550Z,14.1
2017-08-22T01:19:31.115Z,14.1
2017-08-22T01:20:29.837Z,14
2017-08-22T01:21:29.331Z,14
2017-08-22T01:22:28.520Z,14
2017-08-22T01:23:27.975Z,14
2017-08-22T01:24:27.177Z,14
2017-08-22T01:25:26.376Z,13.8
2017-08-22T01:26:25.570Z,13.9
2017-08-22T01:27:24.642Z,13.9
2017-08-22T01:28:24.098Z,13.9
2017-08-22T01:29:23.169Z,13.9
2017-08-22T01:30:22.362Z,13.8
2017-08-22T01:31:21.452Z,13.8
2017-08-22T01:31:51.964Z,13.8
2017-08-22T01:32:22.338Z,13.8
2017-08-22T01:32:52.723Z,13.8
2017-08-22T01:33:23.109Z,13.8
2017-08-22T01:34:19.281Z,13.8
2017-08-22T01:35:18.624Z,13.8
2017-08-22T01:36:17.705Z,13.8
2017-08-22T01:37:16.897Z,13.9
2017-08-22T01:38:16.480Z,13.9
2017-08-22T01:39:15.558Z,14
2017-08-22T01:40:14.629Z,14
2017-08-22T01:41:13.576Z,14
2017-08-22T01:42:13.029Z,14
2017-08-22T01:43:12.601Z,14
2017-08-22T01:44:11.780Z,13.9
2017-08-22T01:45:11.007Z,14
2017-08-22T01:46:10.080Z,14
2017-08-22T01:47:09.158Z,13.9
2017-08-22T01:48:08.858Z,13.9
2017-08-22T01:50:06.847Z,13.9
2017-08-22T01:51:06.419Z,13.9
2017-08-22T01:52:05.633Z,13.9
2017-08-22T01:53:04.709Z,13.9
2017-08-22T01:55:03.181Z,13.9
2017-08-22T01:56:02.265Z,13.9
2017-08-22T01:57:01.344Z,14
2017-08-22T01:58:01.036Z,14
2017-08-22T01:58:59.754Z,14
2017-08-22T01:59:59.091Z,14
2017-08-22T02:00:58.676Z,14
2017-08-22T02:01:57.865Z,13.9
2017-08-22T02:02:56.937Z,13.9
2017-08-22T02:03:56.004Z,13.8
2017-08-22T02:04:55.572Z,13.9
2017-08-22T02:05:54.773Z,13.9
2017-08-22T02:06:53.974Z,14
2017-08-22T02:07:53.167Z,14
2017-08-22T02:08:52.346Z,14
2017-08-22T02:09:51.490Z,14
2017-08-22T02:10:50.673Z,14
2017-08-22T02:11:49.855Z,14
2017-08-22T02:12:49.437Z,14
2017-08-22T02:13:48.514Z,14
2017-08-22T02:14:47.580Z,14
2017-08-22T02:15:47.180Z,14
2017-08-22T02:16:46.253Z,14
2017-08-22T02:17:45.444Z,14
2017-08-22T02:18:44.638Z,13.8
2017-08-22T02:19:43.724Z,13.8
2017-08-22T02:20:42.933Z,13.8
2017-08-22T02:21:42.515Z,13.8
2017-08-22T02:22:41.711Z,13.8
2017-08-22T02:23:40.900Z,13.8
2017-08-22T02:25:39.245Z,13.8
2017-08-22T02:26:38.202Z,13.8
2017-08-22T02:27:37.398Z,13.8
2017-08-22T02:28:36.976Z,13.8
2017-08-22T02:29:36.169Z,13.8
2017-08-22T02:30:35.356Z,13.7
2017-08-22T02:31:34.438Z,13.6
2017-08-22T02:32:33.670Z,13.5
2017-08-22T02:33:32.617Z,13.5
2017-08-22T02:34:32.073Z,13.5
2017-08-22T02:35:31.152Z,13.6
2017-08-22T02:37:29.614Z,13.5
2017-08-22T02:38:29.192Z,13.5
2017-08-22T02:39:28.280Z,13.5
2017-08-22T02:40:27.475Z,13.6
2017-08-22T02:41:26.563Z,13.5
2017-08-22T02:42:25.751Z,13.5
2017-08-22T02:43:25.339Z,13.5
2017-08-22T02:44:24.423Z,13.5
2017-08-22T02:45:23.377Z,13.6
2017-08-22T02:46:23.106Z,13.5
2017-08-22T02:47:21.799Z,13.5
2017-08-22T02:48:21.514Z,13.5
2017-08-22T02:49:20.349Z,13.5
2017-08-22T02:50:19.546Z,13.5
2017-08-22T02:51:18.391Z,13.5
2017-08-22T02:52:17.969Z,13.5
2017-08-22T02:53:17.175Z,13.5
2017-08-22T02:54:16.383Z,13.5
2017-08-22T02:55:15.595Z,13.5
2017-08-22T02:56:14.795Z,13.5
2017-08-22T02:57:13.875Z,13.5
2017-08-22T02:58:13.329Z,13.5
2017-08-22T02:59:12.680Z,13.5
2017-08-22T03:00:11.749Z,13.5
2017-08-22T03:01:11.221Z,13.3
2017-08-22T03:02:10.293Z,13.3
2017-08-22T03:03:09.351Z,13.3
2017-08-22T03:04:08.533Z,13.2
2017-08-22T03:05:08.115Z,13.3
2017-08-22T03:06:07.080Z,13.2
2017-08-22T03:07:06.265Z,13.2
2017-08-22T03:08:05.448Z,13.1
2017-08-22T03:09:04.529Z,13.1
2017-08-22T03:10:04.107Z,13.1
2017-08-22T03:11:03.321Z,13.1
2017-08-22T03:12:02.284Z,13.1
2017-08-22T03:13:01.478Z,13.1
2017-08-22T03:14:01.063Z,13.1
2017-08-22T03:15:00.023Z,13.1
2017-08-22T03:15:59.479Z,13
2017-08-22T03:16:58.550Z,13.1
2017-08-22T03:17:57.752Z,13.1
2017-08-22T03:18:56.960Z,13
2017-08-22T03:19:27.347Z,13
2017-08-22T03:20:55.219Z,13.1
2017-08-22T03:21:54.290Z,13.2
2017-08-22T03:23:52.961Z,13.2
2017-08-22T03:24:52.031Z,13.2
2017-08-22T03:25:51.787Z,13.2
2017-08-22T03:26:50.478Z,13.2
2017-08-22T03:27:49.689Z,13.2
2017-08-22T03:28:48.892Z,13
2017-08-22T03:29:48.368Z,13
2017-08-22T03:30:47.600Z,13
2017-08-22T03:31:46.574Z,13
2017-08-22T03:32:45.760Z,13
2017-08-22T03:33:44.966Z,13
2017-08-22T03:34:44.188Z,13
2017-08-22T03:35:43.387Z,13
2017-08-22T03:36:42.572Z,12.9
2017-08-22T03:37:41.752Z,13
2017-08-22T03:38:41.210Z,13
2017-08-22T03:39:40.060Z,13
2017-08-22T03:40:39.629Z,13
2017-08-22T03:41:38.711Z,13
2017-08-22T03:42:38.161Z,13.1
2017-08-22T03:43:37.235Z,13.1
2017-08-22T03:44:36.311Z,13.1
2017-08-22T03:45:35.268Z,13.1
2017-08-22T03:46:34.954Z,13.1
2017-08-22T03:47:34.135Z,13.1
2017-08-22T03:48:33.330Z,13.1
2017-08-22T03:49:32.409Z,13.1
2017-08-22T03:50:31.607Z,13.1
2017-08-22T03:51:30.798Z,13
2017-08-22T03:52:29.861Z,13.1
2017-08-22T03:53:29.490Z,13.1
2017-08-22T03:54:28.708Z,13.1
2017-08-22T03:55:27.676Z,13.1
2017-08-22T03:56:26.764Z,13
2017-08-22T03:57:25.843Z,13
2017-08-22T03:58:25.315Z,12.9
2017-08-22T03:59:24.506Z,12.9
2017-08-22T04:00:23.705Z,13
2017-08-22T04:00:54.213Z,13
2017-08-22T04:02:22.091Z,13
2017-08-22T04:03:21.286Z,13
2017-08-22T04:04:20.365Z,13
2017-08-22T04:05:19.835Z,13
2017-08-22T04:06:18.917Z,13
2017-08-22T04:07:18.392Z,13.1
2017-08-22T04:08:17.479Z,13.1
2017-08-22T04:09:16.680Z,13.1
2017-08-22T04:10:15.869Z,13.1
2017-08-22T04:11:15.068Z,13.1
2017-08-22T04:11:45.339Z,13.1
2017-08-22T04:12:15.851Z,13.1
2017-08-22T04:12:46.131Z,13.1
2017-08-22T04:14:12.767Z,13.1
2017-08-22T04:15:11.955Z,13.1
2017-08-22T04:16:11.144Z,13.1
2017-08-22T04:17:10.324Z,13.1
2017-08-22T04:18:09.167Z,13.1
2017-08-22T04:19:08.860Z,13
2017-08-22T04:20:08.044Z,13
2017-08-22T04:21:07.228Z,13
2017-08-22T04:22:06.180Z,13
2017-08-22T04:23:05.382Z,13
2017-08-22T04:24:04.588Z,13
2017-08-22T04:25:03.671Z,13
2017-08-22T04:26:03.382Z,13
2017-08-22T04:27:02.471Z,13
2017-08-22T04:28:01.559Z,13
2017-08-22T04:29:00.746Z,13
2017-08-22T04:29:59.942Z,13
2017-08-22T04:30:59.141Z,13
2017-08-22T04:31:58.206Z,13
2017-08-22T04:32:57.404Z,13
2017-08-22T04:33:56.466Z,13
2017-08-22T04:35:54.802Z,13
2017-08-22T04:36:54.389Z,13
2017-08-22T04:37:53.481Z,13
2017-08-22T04:38:23.866Z,13
2017-08-22T04:38:54.257Z,13
2017-08-22T04:39:51.941Z,13
2017-08-22T04:40:51.203Z,13
2017-08-22T04:41:50.311Z,13
2017-08-22T04:42:49.501Z,13
2017-08-22T04:43:48.585Z,12.8
2017-08-22T04:44:48.282Z,12.8
2017-08-22T04:45:47.359Z,12.9
2017-08-22T04:46:46.559Z,13
2017-08-22T04:47:45.517Z,13
2017-08-22T04:48:44.709Z,13.1
2017-08-22T04:49:44.279Z,13.1
2017-08-22T04:50:43.461Z,13.3
2017-08-22T04:52:41.539Z,13.3
2017-08-22T04:53:40.616Z,13.3
2017-08-22T04:54:40.186Z,13.5
2017-08-22T04:55:39.264Z,13.5
2017-08-22T04:56:38.354Z,13.5
2017-08-22T04:57:37.555Z,13.3
2017-08-22T04:58:36.617Z,13.3
2017-08-22T04:59:36.193Z,13.5
2017-08-22T05:00:35.391Z,13.6
2017-08-22T05:01:34.587Z,13.7
2017-08-22T05:02:33.665Z,13.7
2017-08-22T05:03:32.871Z,13.7
2017-08-22T05:04:32.055Z,13.7
2017-08-22T05:05:31.244Z,13.7
2017-08-22T05:06:30.084Z,13.6
2017-08-22T05:07:29.558Z,13.8
2017-08-22T05:08:28.750Z,13.8
2017-08-22T05:09:27.946Z,13.8
2017-08-22T05:10:27.136Z,13.9
2017-08-22T05:11:26.325Z,14
2017-08-22T05:12:25.914Z,13.9
2017-08-22T05:13:24.871Z,13.9
2017-08-22T05:14:23.945Z,13.9
2017-08-22T05:15:23.534Z,13.8
2017-08-22T05:16:22.726Z,13.9
2017-08-22T05:17:21.921Z,13.9
2017-08-22T05:18:20.998Z,13.8
2017-08-22T05:19:20.069Z,13.8
2017-08-22T05:21:18.431Z,13.8
2017-08-22T05:22:17.627Z,13.8
2017-08-22T05:24:16.214Z,13.7
2017-08-22T05:25:15.414Z,13.7
2017-08-22T05:26:14.611Z,13.8
2017-08-22T05:27:13.695Z,13.7
2017-08-22T05:28:12.891Z,13.7
2017-08-22T05:29:12.106Z,13.6
2017-08-22T05:30:11.694Z,13.7
2017-08-22T05:30:42.211Z,13.7
2017-08-22T05:32:10.090Z,13.7
2017-08-22T05:33:09.277Z,13.7
2017-08-22T05:34:08.460Z,13.7
2017-08-22T05:36:06.190Z,13.8
2017-08-22T05:37:05.899Z,13.8
2017-08-22T05:38:05.082Z,14
2017-08-22T05:39:04.273Z,14.1
2017-08-22T05:40:03.379Z,14.2
2017-08-22T05:41:02.601Z,14.4
2017-08-22T05:42:01.444Z,14.4
2017-08-22T05:44:00.536Z,14.5
2017-08-22T05:45:58.596Z,14.7
2017-08-22T05:46:57.786Z,14.8
2017-08-22T05:47:56.866Z,15
2017-08-22T05:48:56.565Z,15
2017-08-22T05:49:55.755Z,15.1
2017-08-22T05:50:54.952Z,15
2017-08-22T05:51:54.042Z,15
2017-08-22T05:52:53.230Z,15
2017-08-22T05:53:52.309Z,15.1
2017-08-22T05:54:51.504Z,15.3
2017-08-22T05:55:50.589Z,15.4
2017-08-22T05:56:49.665Z,15.5
2017-08-22T05:57:49.233Z,15.6
2017-08-22T05:58:48.304Z,15.7
2017-08-22T05:59:47.493Z,15.8
2017-08-22T06:00:46.713Z,16
2017-08-22T06:01:45.791Z,16
2017-08-22T06:02:45.499Z,16.1
2017-08-22T06:03:44.677Z,16.2
2017-08-22T06:04:43.632Z,16.1
2017-08-22T06:05:42.596Z,16.1
2017-08-22T06:06:42.289Z,16.1
2017-08-22T06:07:41.372Z,16
2017-08-22T06:08:40.450Z,16
2017-08-22T06:09:39.639Z,15.9
2017-08-22T06:10:38.732Z,15.7
2017-08-22T06:11:37.929Z,15.6
2017-08-22T06:12:37.636Z,15.6
2017-08-22T06:13:36.714Z,15.6
2017-08-22T06:14:35.792Z,15.6
2017-08-22T06:15:34.991Z,15.7
2017-08-22T06:16:34.068Z,15.7
2017-08-22T06:17:33.267Z,15.9
2017-08-22T06:18:32.473Z,16.1
2017-08-22T06:19:31.665Z,16
2017-08-22T06:20:30.860Z,16.1
2017-08-22T06:21:30.054Z,16
2017-08-22T06:22:29.744Z,16
2017-08-22T06:23:28.924Z,16
2017-08-22T06:25:27.149Z,16.2
2017-08-22T06:26:26.328Z,16.3
2017-08-22T06:27:25.411Z,16.3
2017-08-22T06:28:24.864Z,16.3
2017-08-22T06:29:23.812Z,16.2
2017-08-22T06:30:23.001Z,16
2017-08-22T06:32:21.577Z,15.8
2017-08-22T06:33:20.776Z,15.7
2017-08-22T06:34:19.970Z,15.8
2017-08-22T06:35:19.191Z,15.8
2017-08-22T06:36:18.269Z,15.8
2017-08-22T06:37:17.730Z,15.8
2017-08-22T06:38:17.070Z,15.7
2017-08-22T06:39:16.268Z,15.9
2017-08-22T06:40:15.453Z,16.1
2017-08-22T06:41:14.430Z,16.1
2017-08-22T06:42:13.625Z,16.3
2017-08-22T06:43:13.323Z,16.5
2017-08-22T06:44:12.501Z,16.6
2017-08-22T06:45:11.584Z,16.5
2017-08-22T06:46:10.793Z,16.5
2017-08-22T06:47:09.987Z,16.5
2017-08-22T06:48:09.057Z,16.5
2017-08-22T06:49:08.131Z,16.6
2017-08-22T06:50:07.741Z,16.6
2017-08-22T06:51:06.943Z,16.8
2017-08-22T06:52:06.019Z,16.8
2017-08-22T06:53:04.971Z,16.8
2017-08-22T06:54:04.661Z,16.8
2017-08-22T06:55:03.493Z,16.7
2017-08-22T06:56:03.190Z,16.8
2017-08-22T06:56:33.572Z,16.8
2017-08-22T06:57:03.963Z,17
2017-08-22T06:57:34.352Z,17
2017-08-22T06:59:00.733Z,16.8
2017-08-22T06:59:59.933Z,16.8
2017-08-22T07:00:59.126Z,16.7
2017-08-22T07:01:58.317Z,16.7
2017-08-22T07:02:57.400Z,16.7
2017-08-22T07:03:56.587Z,16.9
2017-08-22T07:04:55.667Z,16.9
2017-08-22T07:05:55.255Z,17
2017-08-22T07:06:54.453Z,17
2017-08-22T07:07:24.719Z,17
2017-08-22T07:07:55.240Z,17.1
2017-08-22T07:08:52.814Z,17.2
2017-08-22T07:09:51.891Z,17
2017-08-22T07:10:51.473Z,17
2017-08-22T07:11:50.546Z,16.9
2017-08-22T07:12:49.501Z,16.8
2017-08-22T07:13:49.083Z,16.8
2017-08-22T07:15:47.684Z,16.7
2017-08-22T07:17:45.641Z,17
2017-08-22T07:19:44.612Z,17.1
2017-08-22T07:20:43.685Z,17.1
2017-08-22T07:21:42.641Z,17.3
2017-08-22T07:22:42.337Z,17.2
2017-08-22T07:23:41.530Z,17.2
2017-08-22T07:24:40.712Z,17.1
2017-08-22T07:25:39.656Z,17.1
2017-08-22T07:26:39.244Z,17.1
2017-08-22T07:27:38.426Z,17.1
2017-08-22T07:29:37.311Z,17.6
2017-08-22T07:30:35.880Z,17.6
2017-08-22T07:31:35.074Z,17.5
2017-08-22T07:32:34.703Z,17.5
2017-08-22T07:34:33.272Z,17.5
2017-08-22T07:35:32.467Z,17.7
2017-08-22T07:36:31.424Z,17.8
2017-08-22T07:37:30.610Z,17.6
2017-08-22T07:38:29.797Z,17.8
2017-08-22T07:39:28.987Z,17.8
2017-08-22T07:40:28.682Z,17.5
2017-08-22T07:41:27.882Z,17.6
2017-08-22T07:42:27.075Z,17.6
2017-08-22T07:43:26.154Z,17.9
2017-08-22T07:44:25.351Z,17.9
2017-08-22T07:45:24.419Z,17.8
2017-08-22T07:46:23.987Z,17.8
2017-08-22T07:46:54.489Z,17.8
2017-08-22T07:47:24.641Z,17.8
2017-08-22T07:47:55.656Z,17.8
2017-08-22T07:49:21.395Z,18
2017-08-22T07:50:21.106Z,18
2017-08-22T07:51:20.299Z,18
2017-08-22T07:52:19.497Z,17.8
2017-08-22T07:53:18.590Z,17.8
2017-08-22T07:54:17.660Z,17.8
2017-08-22T07:55:17.247Z,17.7
2017-08-22T07:56:16.506Z,17.6
2017-08-22T07:57:15.580Z,17.7
2017-08-22T07:58:14.668Z,17.7
2017-08-22T07:59:14.123Z,17.8
2017-08-22T08:00:13.196Z,17.9
2017-08-22T08:01:12.907Z,18
2017-08-22T08:02:12.108Z,18.1
2017-08-22T08:03:11.301Z,18.1
2017-08-22T08:04:10.132Z,18.1
2017-08-22T08:05:09.717Z,18.1
2017-08-22T08:08:07.564Z,18
2017-08-22T08:09:06.635Z,17.9
2017-08-22T08:10:05.715Z,17.6
2017-08-22T08:11:05.298Z,17.5
2017-08-22T08:12:04.139Z,17.5
2017-08-22T08:13:03.608Z,17.6
2017-08-22T08:14:02.948Z,17.5
2017-08-22T08:15:02.146Z,17.5
2017-08-22T08:16:01.342Z,17.6
2017-08-22T08:17:00.428Z,17.6
2017-08-22T08:18:00.123Z,17.8
2017-08-22T08:18:59.087Z,18
2017-08-22T08:19:58.289Z,18.1
2017-08-22T08:20:57.997Z,18.3
2017-08-22T08:21:57.071Z,18
2017-08-22T08:22:56.032Z,17.9
2017-08-22T08:23:55.624Z,18.1
2017-08-22T08:24:54.818Z,18.1
2017-08-22T08:25:54.023Z,18.1
2017-08-22T08:26:53.483Z,18.1
2017-08-22T08:27:52.667Z,18.3
2017-08-22T08:28:51.516Z,18.3
2017-08-22T08:29:50.980Z,18.1
2017-08-22T08:30:50.438Z,18
2017-08-22T08:31:49.398Z,18
2017-08-22T08:32:49.095Z,18
2017-08-22T08:33:48.297Z,18
2017-08-22T08:35:46.917Z,18.1
2017-08-22T08:36:45.877Z,18
2017-08-22T08:37:45.331Z,17.8
2017-08-22T08:38:44.528Z,17.6
2017-08-22T08:39:43.605Z,17.7
2017-08-22T08:40:43.316Z,17.7
2017-08-22T08:41:42.391Z,17.9
2017-08-22T08:42:41.584Z,17.9
2017-08-22T08:43:40.786Z,18
2017-08-22T08:44:40.358Z,18.3
2017-08-22T08:45:39.545Z,18.5
2017-08-22T08:46:38.623Z,18.5
2017-08-22T08:47:38.352Z,18.5
2017-08-22T08:48:37.325Z,18.5
2017-08-22T08:49:36.422Z,18.6
2017-08-22T08:50:35.989Z,18.6
2017-08-22T08:51:35.175Z,18.6
2017-08-22T08:52:34.254Z,18.6
2017-08-22T08:53:33.947Z,18.6
2017-08-22T08:55:32.416Z,18.6
2017-08-22T08:56:31.598Z,18.7
2017-08-22T08:57:30.546Z,18.6
2017-08-22T08:58:30.258Z,18.5
2017-08-22T08:59:29.335Z,18.5
2017-08-22T09:00:28.956Z,18.5
2017-08-22T09:01:28.029Z,18.4
2017-08-22T09:02:26.975Z,18.4
2017-08-22T09:03:26.560Z,18.5
2017-08-22T09:04:25.520Z,18.7
2017-08-22T09:05:25.128Z,18.6
2017-08-22T09:06:24.201Z,18.5
2017-08-22T09:08:23.165Z,18.6
2017-08-22T09:09:22.256Z,18.6
2017-08-22T09:10:21.331Z,18.7
2017-08-22T09:11:21.029Z,18.8
2017-08-22T09:12:20.097Z,18.9
2017-08-22T09:13:19.678Z,18.9
2017-08-22T09:14:18.878Z,18.9
2017-08-22T09:15:18.071Z,18.9
2017-08-22T09:16:17.152Z,19
2017-08-22T09:17:16.614Z,19
2017-08-22T09:18:15.813Z,19.1
2017-08-22T09:19:15.398Z,19
2017-08-22T09:20:14.481Z,19
2017-08-22T09:21:13.606Z,19.1
2017-08-22T09:22:13.304Z,19.1
2017-08-22T09:23:12.250Z,19.1
2017-08-22T09:24:11.830Z,19.4
2017-08-22T09:25:11.036Z,19.5
2017-08-22T09:25:41.454Z,19.5
2017-08-22T09:26:11.859Z,19.5
2017-08-22T09:26:42.359Z,19.5
2017-08-22T09:27:12.867Z,19.5
2017-08-22T09:28:08.934Z,19.3
2017-08-22T09:29:08.130Z,19.1
2017-08-22T09:30:07.333Z,19
2017-08-22T09:31:07.038Z,18.8
2017-08-22T09:32:05.993Z,18.7
2017-08-22T09:33:05.451Z,18.7
2017-08-22T09:34:04.633Z,18.7
2017-08-22T09:35:03.838Z,18.7
2017-08-22T09:36:03.414Z,18.5
2017-08-22T09:37:02.484Z,18.4
2017-08-22T09:38:01.680Z,18.4
2017-08-22T09:39:01.261Z,18.4
2017-08-22T09:40:00.355Z,18.4
2017-08-22T09:40:59.817Z,18.4
2017-08-22T09:41:58.897Z,18.4
2017-08-22T09:42:58.366Z,18.5
2017-08-22T09:44:56.831Z,18.6
2017-08-22T09:45:56.401Z,18.6
2017-08-22T09:46:55.344Z,18.7
2017-08-22T09:47:54.927Z,18.7
2017-08-22T09:48:54.125Z,18.7
2017-08-22T09:49:53.596Z,18.7
2017-08-22T09:50:52.778Z,18.6
2017-08-22T09:51:51.862Z,18.6
2017-08-22T09:52:51.325Z,18.8
2017-08-22T09:53:50.408Z,19
2017-08-22T09:54:49.874Z,19.1
2017-08-22T09:55:49.578Z,19.2
2017-08-22T09:56:48.371Z,18.8
2017-08-22T09:57:47.953Z,18.7
2017-08-22T09:58:47.147Z,18.8
2017-08-22T09:59:46.838Z,18.8
2017-08-22T10:00:45.803Z,18.8
2017-08-22T10:01:44.872Z,18.7
2017-08-22T10:02:44.736Z,18.8
2017-08-22T10:03:43.931Z,18.8
2017-08-22T10:04:43.113Z,18.8
2017-08-22T10:05:42.312Z,18.7
2017-08-22T10:06:42.008Z,18.6
2017-08-22T10:07:41.203Z,18.6
2017-08-22T10:08:40.398Z,18.5
2017-08-22T10:09:39.600Z,18.5
2017-08-22T10:10:38.788Z,18.5
2017-08-22T10:12:37.750Z,18.5
2017-08-22T10:13:36.942Z,18.4
2017-08-22T10:14:36.028Z,18.2
2017-08-22T10:16:35.146Z,18
2017-08-22T10:17:34.218Z,17.8
2017-08-22T10:18:33.399Z,17.7
2017-08-22T10:19:32.479Z,17.7
2017-08-22T10:20:32.065Z,17.7
2017-08-22T10:21:31.419Z,17.8
2017-08-22T10:22:30.604Z,17.8
2017-08-22T10:23:30.189Z,17.8
2017-08-22T10:24:29.038Z,18
2017-08-22T10:25:28.617Z,18
2017-08-22T10:27:27.087Z,18
2017-08-22T10:28:26.784Z,18.1
2017-08-22T10:29:25.982Z,18.1
2017-08-22T10:30:25.188Z,18.1
2017-08-22T10:31:24.390Z,18.1
2017-08-22T10:32:23.975Z,18
2017-08-22T10:33:23.165Z,18
2017-08-22T10:34:22.117Z,18
2017-08-22T10:35:21.829Z,18
2017-08-22T10:36:21.022Z,18.1
2017-08-22T10:37:20.218Z,18.1
2017-08-22T10:38:19.906Z,18.1
2017-08-22T10:39:19.003Z,18.1
2017-08-22T10:40:18.197Z,18.3
2017-08-22T10:41:17.907Z,18.3
2017-08-22T10:42:16.984Z,18.3
2017-08-22T10:43:16.205Z,18.3
2017-08-22T10:44:15.276Z,18.3
2017-08-22T10:45:14.846Z,18.3
2017-08-22T10:46:14.036Z,18.5
2017-08-22T10:47:13.617Z,18.5
2017-08-22T10:48:13.088Z,18.6
2017-08-22T10:49:12.164Z,18.6
2017-08-22T10:50:11.231Z,18.6
2017-08-22T10:51:10.801Z,18.6
2017-08-22T10:52:10.007Z,18.6
2017-08-22T10:53:09.705Z,18.7
2017-08-22T10:54:08.929Z,18.8
2017-08-22T10:55:07.904Z,18.7
2017-08-22T10:56:07.357Z,18.6
2017-08-22T10:57:06.319Z,18.7
2017-08-22T10:58:05.797Z,18.8
2017-08-22T10:59:05.303Z,19
2017-08-22T11:00:04.256Z,19
2017-08-22T11:01:03.613Z,19
2017-08-22T11:02:03.311Z,19
2017-08-22T11:03:02.521Z,19
2017-08-22T11:04:02.102Z,18.9
2017-08-22T11:05:01.179Z,18.8
2017-08-22T11:06:00.640Z,18.8
2017-08-22T11:06:59.820Z,18.8
2017-08-22T11:07:59.282Z,18.7
2017-08-22T11:08:58.359Z,18.7
2017-08-22T11:09:57.954Z,18.6
2017-08-22T11:10:57.167Z,18.7
2017-08-22T11:11:56.360Z,18.6
2017-08-22T11:12:55.944Z,18.6
2017-08-22T11:13:54.899Z,18.6
2017-08-22T11:14:54.592Z,18.6
2017-08-22T11:15:53.791Z,18.7
2017-08-22T11:16:52.992Z,18.7
2017-08-22T11:17:52.703Z,18.6
2017-08-22T11:18:51.901Z,18.6
2017-08-22T11:19:51.103Z,18.6
2017-08-22T11:20:50.292Z,18.6
2017-08-22T11:21:49.978Z,18.6
2017-08-22T11:22:49.174Z,18.6
2017-08-22T11:23:48.361Z,18.7
2017-08-22T11:24:48.050Z,18.8
2017-08-22T11:25:47.118Z,18.9
2017-08-22T11:27:45.604Z,18.9
2017-08-22T11:28:45.177Z,19
2017-08-22T11:29:44.149Z,19.1
2017-08-22T11:31:42.993Z,19.2
2017-08-22T11:32:42.697Z,19.3
2017-08-22T11:33:41.772Z,19.3
2017-08-22T11:34:40.973Z,19.3
2017-08-22T11:35:40.681Z,19.4
2017-08-22T11:36:39.760Z,19.3
2017-08-22T11:37:38.711Z,19.3
2017-08-22T11:38:38.553Z,19.3
2017-08-22T11:40:37.130Z,19.1
2017-08-22T11:41:36.337Z,19
2017-08-22T11:43:34.910Z,18.6
2017-08-22T11:44:34.364Z,18.6
2017-08-22T11:45:34.065Z,18.4
2017-08-22T11:46:32.898Z,18.3
2017-08-22T11:47:32.599Z,18.2
2017-08-22T11:48:31.432Z,18.2
2017-08-22T11:49:31.129Z,18.2
2017-08-22T11:50:30.207Z,18.1
2017-08-22T11:51:29.906Z,18.1
2017-08-22T11:52:28.863Z,18.1
2017-08-22T11:53:28.574Z,18.2
2017-08-22T11:54:27.409Z,18.3
2017-08-22T11:55:27.108Z,18.3
2017-08-22T11:56:26.295Z,18.3
2017-08-22T11:57:25.978Z,18.3
2017-08-22T11:58:25.164Z,18.3
2017-08-22T11:59:24.363Z,18.3
2017-08-22T12:01:23.332Z,18.3
2017-08-22T12:02:22.511Z,18.3
2017-08-22T12:03:21.706Z,18.4
2017-08-22T12:04:21.291Z,18.5
2017-08-22T12:05:21.040Z,18.5
2017-08-22T12:06:19.724Z,18.5
2017-08-22T12:07:19.413Z,18.5
2017-08-22T12:08:18.609Z,18.5
2017-08-22T12:09:17.810Z,18.5
2017-08-22T12:10:17.378Z,18.6
2017-08-22T12:11:16.576Z,18.6
2017-08-22T12:12:16.032Z,18.8
2017-08-22T12:13:15.255Z,18.8
2017-08-22T12:14:14.453Z,18.8
2017-08-22T12:15:14.166Z,18.8
2017-08-22T12:16:13.120Z,18.8
2017-08-22T12:17:12.816Z,18.7
2017-08-22T12:18:11.897Z,18.6
2017-08-22T12:19:11.353Z,18.6
2017-08-22T12:20:10.304Z,18.6
2017-08-22T12:22:09.388Z,18.6
2017-08-22T12:24:07.968Z,18.6
2017-08-22T12:25:07.311Z,18.7
2017-08-22T12:27:06.390Z,18.8
2017-08-22T12:28:05.466Z,18.8
2017-08-22T12:29:05.050Z,18.8
2017-08-22T12:30:04.119Z,19
2017-08-22T12:31:03.321Z,19
2017-08-22T12:32:02.896Z,19
2017-08-22T12:33:02.091Z,19.1
2017-08-22T12:34:01.786Z,19.1
2017-08-22T12:35:01.006Z,19.3
2017-08-22T12:36:00.214Z,19.3
2017-08-22T12:36:59.788Z,19.3
2017-08-22T12:37:58.999Z,19.3
2017-08-22T12:38:58.195Z,19.3
2017-08-22T12:40:57.285Z,19.3
2017-08-22T12:41:56.363Z,19.3
2017-08-22T12:42:56.067Z,19.3
2017-08-22T12:43:26.347Z,19.3
2017-08-22T12:44:54.733Z,19.4
2017-08-22T12:45:54.201Z,19.4
2017-08-22T12:48:52.161Z,19.4
2017-08-22T12:50:50.732Z,19.5
2017-08-22T12:51:49.802Z,19.5
2017-08-22T12:52:49.272Z,19.5
2017-08-22T12:53:48.976Z,19.3
2017-08-22T12:54:48.071Z,19.2
2017-08-22T12:55:47.769Z,19.1
2017-08-22T12:56:46.959Z,19.1
2017-08-22T12:58:45.312Z,19
2017-08-22T12:59:44.893Z,19
2017-08-22T13:00:44.475Z,19
2017-08-22T13:01:43.552Z,19
2017-08-22T13:02:43.250Z,18.9
2017-08-22T13:03:42.454Z,18.8
2017-08-22T13:04:42.161Z,18.8
2017-08-22T13:05:41.373Z,18.8
2017-08-22T13:06:40.453Z,18.8
2017-08-22T13:07:40.035Z,18.8
2017-08-22T13:08:39.111Z,18.9
2017-08-22T13:09:38.554Z,18.8
2017-08-22T13:10:38.125Z,18.8
2017-08-22T13:11:37.715Z,18.8
2017-08-22T13:12:36.915Z,18.8
2017-08-22T13:13:35.994Z,18.8
2017-08-22T13:14:35.566Z,18.8
2017-08-22T13:15:34.773Z,18.9
2017-08-22T13:16:34.472Z,19
2017-08-22T13:17:34.103Z,19.1
2017-08-22T13:18:32.784Z,19.1
2017-08-22T13:19:32.383Z,19
2017-08-22T13:20:31.590Z,19.1
2017-08-22T13:21:31.291Z,19.1
2017-08-22T13:22:30.358Z,19.1
2017-08-22T13:23:29.949Z,19.1
2017-08-22T13:24:29.019Z,19.1
2017-08-22T13:25:28.590Z,19.1
2017-08-22T13:26:27.663Z,19.1
2017-08-22T13:27:27.357Z,19.1
2017-08-22T13:28:26.935Z,19.1
2017-08-22T13:29:26.020Z,19.1
2017-08-22T13:30:25.718Z,19.1
2017-08-22T13:31:24.681Z,19.1
2017-08-22T13:32:24.380Z,19
2017-08-22T13:33:23.574Z,19
2017-08-22T13:34:22.770Z,19
2017-08-22T13:35:22.478Z,19
2017-08-22T13:36:21.677Z,19.1
2017-08-22T13:36:52.051Z,19.1
2017-08-22T13:38:20.316Z,19.1
2017-08-22T13:39:19.658Z,19.1
2017-08-22T13:40:19.244Z,19.1
2017-08-22T13:41:18.307Z,19.1
2017-08-22T13:42:17.757Z,19.1
2017-08-22T13:43:17.220Z,19.1
2017-08-22T13:44:16.670Z,19.1
2017-08-22T13:45:16.235Z,19
2017-08-22T13:46:15.433Z,19
2017-08-22T13:48:14.521Z,19
2017-08-22T13:49:13.718Z,19.1
2017-08-22T13:50:12.929Z,19.1
2017-08-22T13:51:12.518Z,19.1
2017-08-22T13:52:11.598Z,19.1
2017-08-22T13:53:11.166Z,19.3
2017-08-22T13:54:10.747Z,19.3